createdAt,value
2023-05-25T00:00:27.649Z,81.40
2023-05-25T00:03:35.428Z,81.39
2023-05-25T00:06:43.648Z,81.43
2023-05-25T00:09:51.653Z,81.55
2023-05-25T00:12:58.124Z,81.62
2023-05-25T00:16:03.472Z,81.70
2023-05-25T00:19:10.245Z,81.77
2023-05-25T00:22:17.975Z,81.90
2023-05-25T00:25:25.235Z,81.98
2023-05-25T00:28:31.402Z,82.00
2023-05-25T00:31:40.090Z,82.00
2023-05-25T00:34:46.905Z,82.07
2023-05-25T00:37:54.923Z,82.01
2023-05-25T00:41:01.185Z,82.07
2023-05-25T00:44:07.324Z,82.10
2023-05-25T00:47:13.804Z,82.09
2023-05-25T00:50:19.863Z,82.04
2023-05-25T00:53:27.606Z,82.13
2023-05-25T00:56:35.981Z,82.23
2023-05-25T01:00:03.403Z,82.29
2023-05-25T01:03:11.073Z,82.36
2023-05-25T01:06:17.722Z,82.38
2023-05-25T01:09:25.571Z,82.45
2023-05-25T01:12:30.976Z,82.50
2023-05-25T01:15:38.045Z,82.55
2023-05-25T01:18:44.861Z,82.59
2023-05-25T01:22:01.338Z,82.63
2023-05-25T01:25:18.062Z,82.67
2023-05-25T01:28:27.795Z,82.73
2023-05-25T01:31:36.689Z,82.80
2023-05-25T01:34:38.200Z,82.88
2023-05-25T01:37:46.488Z,82.93
2023-05-25T01:40:51.533Z,82.96
2023-05-25T01:43:58.104Z,83.09
2023-05-25T01:47:08.156Z,83.17
2023-05-25T01:50:40.567Z,83.21
2023-05-25T01:54:03.791Z,83.25
2023-05-25T01:57:09.985Z,83.26
2023-05-25T02:00:19.498Z,83.26
2023-05-25T02:03:23.928Z,83.27
2023-05-25T02:06:30.724Z,83.35
2023-05-25T02:09:38.612Z,83.41
2023-05-25T02:12:45.003Z,83.39
2023-05-25T02:15:52.095Z,83.35
2023-05-25T02:18:57.842Z,83.36
2023-05-25T02:22:03.259Z,83.37
2023-05-25T02:25:08.438Z,83.28
2023-05-25T02:28:15.390Z,83.35
2023-05-25T02:31:21.205Z,83.38
2023-05-25T02:34:26.340Z,83.36
2023-05-25T02:37:31.968Z,83.44
2023-05-25T02:40:38.430Z,83.44
2023-05-25T02:43:44.445Z,83.42
2023-05-25T02:46:50.347Z,83.47
2023-05-25T02:49:58.542Z,83.51
2023-05-25T02:53:07.284Z,83.55
2023-05-25T02:56:13.427Z,83.64
2023-05-25T02:59:20.215Z,83.69
2023-05-25T03:02:27.836Z,83.70
2023-05-25T03:05:35.087Z,83.65
2023-05-25T03:08:41.057Z,83.79
2023-05-25T03:11:48.534Z,83.86
2023-05-25T03:14:54.821Z,83.94
2023-05-25T03:18:02.892Z,83.88
2023-05-25T03:21:09.280Z,83.88
2023-05-25T03:24:16.598Z,83.78
2023-05-25T03:27:22.274Z,83.84
2023-05-25T03:30:29.172Z,83.87
2023-05-25T03:33:36.220Z,83.93
2023-05-25T03:36:42.539Z,83.96
2023-05-25T03:39:49.784Z,84.08
2023-05-25T03:42:55.754Z,84.02
2023-05-25T03:46:02.454Z,83.86
2023-05-25T03:49:08.584Z,83.96
2023-05-25T03:52:15.468Z,84.13
2023-05-25T03:55:23.593Z,84.29
2023-05-25T03:58:31.387Z,84.34
2023-05-25T04:01:37.022Z,84.22
2023-05-25T04:04:43.188Z,84.21
2023-05-25T04:07:49.243Z,84.25
2023-05-25T04:10:56.651Z,84.20
2023-05-25T04:14:03.213Z,84.17
2023-05-25T04:17:10.910Z,84.22
2023-05-25T04:20:18.127Z,84.25
2023-05-25T04:23:27.226Z,84.28
2023-05-25T04:26:35.220Z,84.25
2023-05-25T04:29:40.951Z,84.15
2023-05-25T04:32:53.418Z,84.19
2023-05-25T04:36:01.565Z,84.18
2023-05-25T04:39:09.531Z,84.16
2023-05-25T04:42:17.487Z,84.21
2023-05-25T04:45:26.724Z,84.38
2023-05-25T04:48:39.349Z,84.48
2023-05-25T04:51:45.696Z,84.51
2023-05-25T04:54:51.913Z,84.44
2023-05-25T04:58:00.606Z,84.35
2023-05-25T05:01:07.546Z,84.50
2023-05-25T05:04:14.666Z,84.62
2023-05-25T05:07:22.411Z,84.72
2023-05-25T05:10:32.019Z,84.77
2023-05-25T05:13:37.730Z,84.69
2023-05-25T05:16:48.058Z,84.67
2023-05-25T05:19:53.710Z,84.63
2023-05-25T05:23:01.799Z,84.60
2023-05-25T05:26:11.377Z,84.57
2023-05-25T05:29:19.783Z,84.59
2023-05-25T05:32:26.954Z,84.43
2023-05-25T05:35:32.412Z,84.41
2023-05-25T05:38:42.455Z,84.42
2023-05-25T05:41:49.390Z,84.41
2023-05-25T05:44:58.621Z,84.47
2023-05-25T05:48:05.339Z,84.59
2023-05-25T05:51:11.677Z,84.86
2023-05-25T05:54:26.456Z,84.91
2023-05-25T05:57:38.077Z,84.89
2023-05-25T06:00:48.105Z,85.09
2023-05-25T06:03:56.267Z,85.19
2023-05-25T06:07:02.802Z,85.28
2023-05-25T06:10:10.423Z,85.40
2023-05-25T06:13:23.731Z,85.45
2023-05-25T06:16:31.381Z,85.47
2023-05-25T06:19:39.209Z,85.53
2023-05-25T06:22:46.342Z,85.59
2023-05-25T06:25:54.232Z,85.53
2023-05-25T06:29:00.257Z,85.45
2023-05-25T06:32:07.031Z,85.50
2023-05-25T06:35:16.402Z,85.53
2023-05-25T06:38:22.976Z,85.53
2023-05-25T06:41:30.448Z,85.44
2023-05-25T06:44:35.907Z,85.49
2023-05-25T06:47:42.728Z,85.42
2023-05-25T06:50:50.204Z,85.54
2023-05-25T06:53:57.912Z,85.61
2023-05-25T06:57:03.536Z,85.57
2023-05-25T07:00:12.563Z,85.66
2023-05-25T07:03:18.299Z,85.56
2023-05-25T07:06:23.958Z,85.49
2023-05-25T07:09:33.157Z,85.24
2023-05-25T07:12:42.937Z,85.33
2023-05-25T07:15:49.657Z,85.34
2023-05-25T07:19:00.347Z,85.08
2023-05-25T07:22:07.379Z,85.19
2023-05-25T07:25:13.620Z,85.29
2023-05-25T07:28:26.979Z,85.19
2023-05-25T07:31:35.312Z,84.93
2023-05-25T07:34:42.666Z,85.10
2023-05-25T07:37:53.574Z,85.05
2023-05-25T07:41:00.368Z,84.87
2023-05-25T07:44:07.853Z,84.75
2023-05-25T07:47:14.518Z,84.79
2023-05-25T07:50:20.720Z,84.94
2023-05-25T07:53:28.230Z,85.13
2023-05-25T07:56:34.249Z,85.21
2023-05-25T07:59:42.937Z,85.33
2023-05-25T08:02:48.835Z,85.23
2023-05-25T08:05:55.329Z,85.28
2023-05-25T08:09:02.907Z,85.33
2023-05-25T08:12:30.601Z,85.47
2023-05-25T08:15:20.895Z,85.50
2023-05-25T08:18:26.909Z,85.37
2023-05-25T08:21:34.816Z,85.26
2023-05-25T08:24:42.128Z,85.26
2023-05-25T08:27:50.750Z,85.32
2023-05-25T08:30:56.878Z,85.41
2023-05-25T08:34:05.639Z,85.23
2023-05-25T08:37:12.807Z,85.06
2023-05-25T08:40:24.940Z,84.94
2023-05-25T08:43:34.237Z,84.96
2023-05-25T08:46:45.808Z,84.69
2023-05-25T08:49:54.325Z,84.67
2023-05-25T08:53:02.250Z,84.66
2023-05-25T08:56:09.437Z,84.64
2023-05-25T08:59:42.102Z,84.64
2023-05-25T09:03:10.915Z,84.59
2023-05-25T09:06:17.041Z,84.51
2023-05-25T09:09:24.348Z,84.29
2023-05-25T09:12:31.450Z,84.17
2023-05-25T09:15:37.810Z,83.84
2023-05-25T09:18:44.349Z,83.66
2023-05-25T09:21:53.085Z,83.36
2023-05-25T09:25:00.498Z,83.28
2023-05-25T09:28:24.789Z,83.22
2023-05-25T09:31:17.226Z,83.21
2023-05-25T09:34:27.844Z,83.22
2023-05-25T09:37:35.078Z,83.25
2023-05-25T09:40:41.987Z,83.01
2023-05-25T09:44:02.307Z,83.00
2023-05-25T09:46:56.276Z,83.09
2023-05-25T09:50:03.454Z,83.09
2023-05-25T09:53:16.361Z,83.04
2023-05-25T09:56:32.360Z,83.01
2023-05-25T09:59:40.566Z,82.75
2023-05-25T10:02:57.833Z,82.64
2023-05-25T10:06:04.350Z,82.42
2023-05-25T10:09:11.956Z,82.20
2023-05-25T10:12:18.579Z,82.17
2023-05-25T10:15:27.427Z,81.93
2023-05-25T10:18:33.415Z,81.65
2023-05-25T10:21:40.223Z,81.41
2023-05-25T10:25:13.867Z,81.37
2023-05-25T10:28:36.668Z,80.98
2023-05-25T10:31:43.336Z,80.68
2023-05-25T10:34:53.102Z,80.90
2023-05-25T10:37:59.775Z,80.86
2023-05-25T10:41:09.346Z,80.24
2023-05-25T10:44:18.197Z,80.07
2023-05-25T10:47:24.934Z,80.42
2023-05-25T10:50:39.207Z,80.32
2023-05-25T10:53:45.965Z,80.38
2023-05-25T10:56:53.530Z,80.68
2023-05-25T11:00:09.758Z,80.97
2023-05-25T11:03:18.455Z,80.72
2023-05-25T11:06:31.664Z,80.93
2023-05-25T11:09:47.772Z,80.92
2023-05-25T11:12:54.901Z,80.87
2023-05-25T11:16:02.464Z,80.62
2023-05-25T11:19:13.570Z,80.60
2023-05-25T11:22:32.488Z,81.17
2023-05-25T11:25:53.033Z,81.55
2023-05-25T11:29:02.337Z,81.54
2023-05-25T11:32:10.326Z,81.75
2023-05-25T11:35:16.543Z,81.87
2023-05-25T11:38:23.848Z,81.81
2023-05-25T11:41:33.299Z,81.47
2023-05-25T11:44:47.060Z,80.85
2023-05-25T11:47:54.661Z,80.82
2023-05-25T11:51:00.431Z,80.11
2023-05-25T11:54:05.718Z,79.54
2023-05-25T11:57:12.817Z,80.07
2023-05-25T12:00:20.762Z,80.44
2023-05-25T12:03:45.360Z,80.76
2023-05-25T12:06:54.378Z,80.43
2023-05-25T12:10:02.608Z,80.60
2023-05-25T12:13:11.306Z,80.72
2023-05-25T12:16:17.187Z,80.25
2023-05-25T12:19:24.566Z,80.14
2023-05-25T12:22:30.887Z,80.34
2023-05-25T12:25:49.222Z,80.06
2023-05-25T12:28:44.019Z,79.72
2023-05-25T12:31:51.638Z,79.75
2023-05-25T12:34:58.780Z,79.32
2023-05-25T12:38:05.310Z,79.40
2023-05-25T12:41:20.878Z,79.36
2023-05-25T12:44:38.702Z,79.20
2023-05-25T12:47:45.108Z,78.77
2023-05-25T12:50:53.654Z,78.84
2023-05-25T12:54:07.641Z,78.55
2023-05-25T12:57:13.614Z,78.11
2023-05-25T13:00:20.977Z,77.68
2023-05-25T13:03:26.959Z,77.72
2023-05-25T13:06:33.312Z,77.81
2023-05-25T13:09:41.148Z,77.45
2023-05-25T13:12:48.752Z,77.13
2023-05-25T13:15:55.545Z,77.05
2023-05-25T13:19:02.163Z,76.86
2023-05-25T13:22:09.933Z,76.54
2023-05-25T13:25:21.080Z,76.29
2023-05-25T13:28:30.727Z,76.27
2023-05-25T13:31:39.499Z,75.98
2023-05-25T13:34:47.581Z,75.98
2023-05-25T13:37:55.605Z,75.80
2023-05-25T13:41:01.482Z,75.89
2023-05-25T13:44:07.638Z,76.07
2023-05-25T13:47:16.221Z,76.21
2023-05-25T13:50:24.569Z,76.24
2023-05-25T13:53:32.262Z,75.68
2023-05-25T13:56:39.459Z,75.24
2023-05-25T13:59:48.156Z,74.98
2023-05-25T14:02:55.592Z,74.92
2023-05-25T14:06:03.521Z,75.17
2023-05-25T14:09:09.778Z,75.13
2023-05-25T14:12:15.303Z,74.78
2023-05-25T14:15:22.615Z,74.88
2023-05-25T14:18:27.927Z,74.57
2023-05-25T14:21:34.665Z,74.35
2023-05-25T14:24:39.938Z,74.21
2023-05-25T14:27:45.088Z,74.37
2023-05-25T14:30:52.910Z,73.97
2023-05-25T14:33:59.183Z,73.84
2023-05-25T14:37:05.211Z,73.78
2023-05-25T14:40:11.523Z,73.61
2023-05-25T14:43:17.198Z,73.64
2023-05-25T14:46:22.523Z,73.67
2023-05-25T14:49:31.033Z,73.41
2023-05-25T14:52:37.733Z,72.92
2023-05-25T14:55:43.745Z,72.75
2023-05-25T14:58:49.758Z,72.42
2023-05-25T15:01:56.124Z,72.18
2023-05-25T15:05:01.998Z,72.29
2023-05-25T15:08:08.317Z,72.28
2023-05-25T15:11:13.064Z,72.34
2023-05-25T15:14:18.771Z,72.09
2023-05-25T15:17:24.721Z,72.55
2023-05-25T15:20:31.667Z,72.09
2023-05-25T15:23:37.718Z,71.59
2023-05-25T15:26:43.902Z,71.65
2023-05-25T15:29:49.419Z,71.37
2023-05-25T15:32:55.602Z,71.23
2023-05-25T15:36:02.374Z,70.73
2023-05-25T15:39:09.157Z,70.58
2023-05-25T15:42:14.999Z,70.48
2023-05-25T15:45:21.484Z,70.67
2023-05-25T15:48:28.734Z,70.76
2023-05-25T15:51:33.551Z,70.88
2023-05-25T15:54:39.475Z,71.12
2023-05-25T15:57:46.061Z,71.23
2023-05-25T16:00:51.498Z,71.25
2023-05-25T16:03:56.436Z,71.15
2023-05-25T16:07:04.971Z,71.05
2023-05-25T16:10:11.208Z,70.96
2023-05-25T16:13:19.988Z,71.10
2023-05-25T16:16:29.214Z,71.27
2023-05-25T16:19:34.390Z,71.54
2023-05-25T16:22:39.806Z,71.70
2023-05-25T16:25:48.315Z,71.64
2023-05-25T16:28:54.379Z,71.56
2023-05-25T16:32:02.064Z,71.65
2023-05-25T16:35:00.158Z,71.85
2023-05-25T16:37:46.257Z,72.00
2023-05-25T16:40:39.719Z,72.00
2023-05-25T16:43:27.091Z,72.12
2023-05-25T16:46:18.449Z,72.25
2023-05-25T16:49:06.158Z,72.31
2023-05-25T16:52:01.048Z,72.32
2023-05-25T16:54:54.814Z,72.29
2023-05-25T16:58:01.894Z,72.39
2023-05-25T17:01:08.034Z,72.52
2023-05-25T17:04:15.747Z,72.63
2023-05-25T17:07:21.254Z,72.71
2023-05-25T17:10:27.713Z,72.80
2023-05-25T17:13:35.347Z,72.83
2023-05-25T17:16:42.361Z,72.86
2023-05-25T17:19:51.632Z,72.84
2023-05-25T17:22:59.830Z,72.87
2023-05-25T17:26:07.114Z,72.95
2023-05-25T17:29:14.875Z,73.06
2023-05-25T17:32:21.761Z,73.15
2023-05-25T17:35:30.754Z,73.19
2023-05-25T17:38:36.575Z,73.21
2023-05-25T17:41:43.279Z,73.19
2023-05-25T17:44:49.313Z,73.24
2023-05-25T17:47:57.733Z,73.29
2023-05-25T17:51:04.984Z,73.34
2023-05-25T17:54:11.549Z,73.34
2023-05-25T17:57:18.740Z,73.34
2023-05-25T18:00:26.436Z,73.44
2023-05-25T18:03:33.893Z,73.58
2023-05-25T18:06:41.408Z,73.72
2023-05-25T18:09:47.572Z,73.77
2023-05-25T18:12:56.037Z,73.85
2023-05-25T18:16:02.831Z,74.02
2023-05-25T18:19:10.186Z,74.14
2023-05-25T18:22:17.637Z,74.28
2023-05-25T18:25:23.423Z,74.42
2023-05-25T18:28:31.596Z,74.61
2023-05-25T18:31:39.744Z,74.78
2023-05-25T18:34:45.941Z,74.91
2023-05-25T18:37:52.396Z,74.96
2023-05-25T18:41:00.722Z,75.04
2023-05-25T18:44:09.275Z,75.13
2023-05-25T18:47:17.414Z,75.27
2023-05-25T18:50:24.218Z,75.33
2023-05-25T18:53:29.773Z,75.41
2023-05-25T18:56:36.364Z,75.47
2023-05-25T18:59:43.149Z,75.57
2023-05-25T19:02:50.112Z,75.67
2023-05-25T19:05:57.550Z,75.79
2023-05-25T19:09:03.540Z,75.86
2023-05-25T19:12:11.631Z,76.00
2023-05-25T19:15:18.455Z,76.12
2023-05-25T19:18:25.899Z,76.19
2023-05-25T19:21:33.245Z,76.21
2023-05-25T19:24:42.625Z,76.21
2023-05-25T19:27:49.090Z,76.30
2023-05-25T19:30:54.271Z,76.46
2023-05-25T19:34:00.228Z,76.49
2023-05-25T19:37:11.553Z,76.54
2023-05-25T19:40:16.093Z,76.66
2023-05-25T19:43:21.553Z,76.69
2023-05-25T19:46:28.091Z,76.71
2023-05-25T19:49:33.912Z,76.68
2023-05-25T19:52:40.413Z,76.72
2023-05-25T19:55:46.706Z,76.73
2023-05-25T19:58:52.534Z,76.84
2023-05-25T20:01:58.842Z,77.04
2023-05-25T20:05:05.653Z,77.18
2023-05-25T20:08:12.490Z,77.26
2023-05-25T20:11:20.283Z,77.33
2023-05-25T20:14:27.414Z,77.44
2023-05-25T20:17:35.469Z,77.43
2023-05-25T20:20:42.433Z,77.40
2023-05-25T20:23:48.524Z,77.46
2023-05-25T20:26:54.669Z,77.58
2023-05-25T20:30:01.747Z,77.67
2023-05-25T20:33:08.030Z,77.77
2023-05-25T20:36:15.619Z,77.87
2023-05-25T20:39:20.018Z,78.02
2023-05-25T20:42:28.010Z,78.13
2023-05-25T20:45:33.771Z,78.21
2023-05-25T20:48:40.801Z,78.24
2023-05-25T20:51:49.035Z,78.23
2023-05-25T20:54:55.555Z,78.30
2023-05-25T20:58:02.870Z,78.36
2023-05-25T21:01:09.135Z,78.40
2023-05-25T21:04:16.317Z,78.44
2023-05-25T21:07:24.910Z,78.51
2023-05-25T21:10:31.096Z,78.64
2023-05-25T21:13:37.754Z,78.67
2023-05-25T21:16:37.414Z,78.70
2023-05-25T21:19:24.782Z,78.82
2023-05-25T21:22:17.954Z,78.83
2023-05-25T21:25:21.348Z,78.85
2023-05-25T21:28:27.196Z,78.98
2023-05-25T21:31:33.333Z,79.14
2023-05-25T21:34:38.800Z,79.28
2023-05-25T21:37:45.563Z,79.34
2023-05-25T21:40:52.359Z,79.36
2023-05-25T21:43:57.591Z,79.36
2023-05-25T21:47:04.082Z,79.32
2023-05-25T21:50:10.846Z,79.35
2023-05-25T21:53:19.581Z,79.51
2023-05-25T21:56:26.136Z,79.60
2023-05-25T21:59:32.003Z,79.60
2023-05-25T22:02:38.332Z,79.62
2023-05-25T22:05:43.941Z,79.70
2023-05-25T22:08:51.095Z,79.76
2023-05-25T22:11:50.505Z,79.90
2023-05-25T22:14:36.795Z,80.04
2023-05-25T22:17:28.981Z,80.12
2023-05-25T22:20:23.065Z,80.21
2023-05-25T22:23:29.497Z,80.29
2023-05-25T22:26:36.474Z,80.38
2023-05-25T22:29:43.385Z,80.48
2023-05-25T22:32:51.022Z,80.56
2023-05-25T22:35:57.435Z,80.64
2023-05-25T22:39:04.617Z,80.62
2023-05-25T22:42:09.580Z,80.59
2023-05-25T22:45:14.887Z,80.59
2023-05-25T22:48:22.912Z,80.52
2023-05-25T22:51:29.371Z,80.47
2023-05-25T22:54:35.338Z,80.50
2023-05-25T22:57:42.134Z,80.53
2023-05-25T23:00:47.639Z,80.54
2023-05-25T23:03:54.317Z,80.58
2023-05-25T23:07:01.723Z,80.68
2023-05-25T23:10:08.238Z,80.80
2023-05-25T23:13:14.168Z,80.76
2023-05-25T23:16:21.067Z,80.70
2023-05-25T23:19:30.391Z,80.69
2023-05-25T23:22:37.580Z,80.77
2023-05-25T23:25:43.610Z,80.85
2023-05-25T23:28:50.030Z,80.96
2023-05-25T23:31:57.331Z,81.05
2023-05-25T23:35:05.076Z,81.02
2023-05-25T23:38:11.038Z,81.00
2023-05-25T23:41:17.404Z,81.03
2023-05-25T23:44:22.866Z,81.13
2023-05-25T23:47:29.072Z,81.25
2023-05-25T23:50:35.360Z,81.46
2023-05-25T23:53:41.671Z,81.65
2023-05-25T23:56:46.684Z,81.75
2023-05-25T23:59:53.469Z,81.84
